sensor_id;sensor_type;location;lat;lon;timestamp;pressure;altitude;pressure_sealevel;temperature;humidity
59650;BME280;46162;57.568;25.814;2023-04-23T00:00:33;100650.22;;;4.02;100.00
59650;BME280;46162;57.568;25.814;2023-04-23T00:03:05;100652.19;;;3.87;100.00
59650;BME280;46162;57.568;25.814;2023-04-23T00:05:38;100648.00;;;3.83;100.00
59650;BME280;46162;57.568;25.814;2023-04-23T00:08:09;100650.50;;;3.60;100.00
59650;BME280;46162;57.568;25.814;2023-04-23T00:10:38;100659.16;;;3.77;100.00
59650;BME280;46162;57.568;25.814;2023-04-23T00:13:07;100654.00;;;3.86;100.00
59650;BME280;46162;57.568;25.814;2023-04-23T00:15:36;100659.53;;;3.96;100.00
59650;BME280;46162;57.568;25.814;2023-04-23T00:18:05;100659.53;;;3.96;100.00
59650;BME280;46162;57.568;25.814;2023-04-23T00:20:34;100657.81;;;3.95;100.00
59650;BME280;46162;57.568;25.814;2023-04-23T00:23:04;100657.63;;;3.98;100.00
59650;BME280;46162;57.568;25.814;2023-04-23T00:25:33;100656.69;;;3.86;100.00
59650;BME280;46162;57.568;25.814;2023-04-23T00:28:01;100655.31;;;3.81;100.00
59650;BME280;46162;57.568;25.814;2023-04-23T00:30:30;100650.38;;;3.75;100.00
59650;BME280;46162;57.568;25.814;2023-04-23T00:32:58;100651.75;;;3.80;100.00
59650;BME280;46162;57.568;25.814;2023-04-23T00:35:27;100647.53;;;3.52;100.00
59650;BME280;46162;57.568;25.814;2023-04-23T00:37:56;100654.03;;;3.22;100.00
59650;BME280;46162;57.568;25.814;2023-04-23T00:40:26;100661.16;;;2.69;100.00
59650;BME280;46162;57.568;25.814;2023-04-23T00:42:55;100660.75;;;2.63;100.00
59650;BME280;46162;57.568;25.814;2023-04-23T00:45:24;100652.91;;;2.87;100.00
59650;BME280;46162;57.568;25.814;2023-04-23T00:47:52;100655.84;;;2.69;100.00
59650;BME280;46162;57.568;25.814;2023-04-23T00:50:22;100658.94;;;2.63;100.00
59650;BME280;46162;57.568;25.814;2023-04-23T00:52:51;100662.69;;;2.19;100.00
59650;BME280;46162;57.568;25.814;2023-04-23T00:55:20;100652.22;;;2.16;100.00
59650;BME280;46162;57.568;25.814;2023-04-23T00:57:50;100654.06;;;2.43;100.00
59650;BME280;46162;57.568;25.814;2023-04-23T01:00:19;100653.94;;;2.44;100.00
59650;BME280;46162;57.568;25.814;2023-04-23T01:02:47;100659.47;;;2.68;100.00
59650;BME280;46162;57.568;25.814;2023-04-23T01:05:19;100656.28;;;2.76;100.00
59650;BME280;46162;57.568;25.814;2023-04-23T01:07:49;100657.69;;;2.82;100.00
59650;BME280;46162;57.568;25.814;2023-04-23T01:10:18;100651.69;;;2.38;100.00
59650;BME280;46162;57.568;25.814;2023-04-23T01:12:47;100662.63;;;1.92;100.00
59650;BME280;46162;57.568;25.814;2023-04-23T01:15:17;100656.09;;;1.83;100.00
59650;BME280;46162;57.568;25.814;2023-04-23T01:17:46;100659.69;;;1.68;100.00
59650;BME280;46162;57.568;25.814;2023-04-23T01:20:15;100660.31;;;2.14;100.00
59650;BME280;46162;57.568;25.814;2023-04-23T01:22:45;100650.75;;;2.25;100.00
59650;BME280;46162;57.568;25.814;2023-04-23T01:25:13;100659.59;;;1.98;100.00
59650;BME280;46162;57.568;25.814;2023-04-23T01:27:42;100663.66;;;2.04;100.00
59650;BME280;46162;57.568;25.814;2023-04-23T01:30:12;100657.22;;;2.08;100.00
59650;BME280;46162;57.568;25.814;2023-04-23T01:32:40;100662.63;;;2.06;100.00
59650;BME280;46162;57.568;25.814;2023-04-23T01:35:10;100663.69;;;1.89;100.00
59650;BME280;46162;57.568;25.814;2023-04-23T01:37:39;100658.34;;;1.89;100.00
59650;BME280;46162;57.568;25.814;2023-04-23T01:40:10;100659.88;;;1.50;100.00
59650;BME280;46162;57.568;25.814;2023-04-23T01:42:39;100659.50;;;1.28;100.00
59650;BME280;46162;57.568;25.814;2023-04-23T01:45:09;100654.03;;;1.01;100.00
59650;BME280;46162;57.568;25.814;2023-04-23T01:47:38;100649.88;;;0.97;100.00
59650;BME280;46162;57.568;25.814;2023-04-23T01:50:08;100652.97;;;0.89;100.00
59650;BME280;46162;57.568;25.814;2023-04-23T01:52:37;100649.78;;;0.68;100.00
59650;BME280;46162;57.568;25.814;2023-04-23T01:55:07;100651.44;;;0.85;100.00
59650;BME280;46162;57.568;25.814;2023-04-23T01:57:37;100654.41;;;0.64;100.00
59650;BME280;46162;57.568;25.814;2023-04-23T02:00:07;100652.72;;;0.48;100.00
59650;BME280;46162;57.568;25.814;2023-04-23T02:02:41;100651.63;;;0.96;100.00
59650;BME280;46162;57.568;25.814;2023-04-23T02:05:12;100648.66;;;0.72;100.00
59650;BME280;46162;57.568;25.814;2023-04-23T02:07:43;100648.22;;;0.64;100.00
59650;BME280;46162;57.568;25.814;2023-04-23T02:10:13;100651.19;;;0.59;100.00
59650;BME280;46162;57.568;25.814;2023-04-23T02:12:43;100643.06;;;0.77;100.00
59650;BME280;46162;57.568;25.814;2023-04-23T02:15:14;100647.28;;;0.35;100.00
59650;BME280;46162;57.568;25.814;2023-04-23T02:17:43;100644.31;;;0.55;100.00
59650;BME280;46162;57.568;25.814;2023-04-23T02:20:12;100645.03;;;0.43;100.00
59650;BME280;46162;57.568;25.814;2023-04-23T02:22:41;100649.06;;;0.34;100.00
59650;BME280;46162;57.568;25.814;2023-04-23T02:25:09;100645.03;;;0.27;100.00
59650;BME280;46162;57.568;25.814;2023-04-23T02:27:38;100653.59;;;0.48;100.00
59650;BME280;46162;57.568;25.814;2023-04-23T02:30:10;100647.44;;;0.32;100.00
59650;BME280;46162;57.568;25.814;2023-04-23T02:32:39;100647.97;;;0.23;100.00
59650;BME280;46162;57.568;25.814;2023-04-23T02:35:09;100654.88;;;0.09;100.00
59650;BME280;46162;57.568;25.814;2023-04-23T02:37:39;100648.63;;;-0.06;100.00
59650;BME280;46162;57.568;25.814;2023-04-23T02:40:09;100643.50;;;-0.09;100.00
59650;BME280;46162;57.568;25.814;2023-04-23T02:42:37;100654.19;;;-0.10;100.00
59650;BME280;46162;57.568;25.814;2023-04-23T02:45:11;100651.13;;;-0.18;100.00
59650;BME280;46162;57.568;25.814;2023-04-23T02:47:40;100652.13;;;-0.21;100.00
59650;BME280;46162;57.568;25.814;2023-04-23T02:50:08;100655.94;;;-0.09;100.00
59650;BME280;46162;57.568;25.814;2023-04-23T02:52:37;100654.13;;;-0.09;100.00
59650;BME280;46162;57.568;25.814;2023-04-23T02:55:07;100649.66;;;-0.08;100.00
59650;BME280;46162;57.568;25.814;2023-04-23T02:57:37;100647.72;;;-0.05;100.00
59650;BME280;46162;57.568;25.814;2023-04-23T03:00:07;100645.81;;;-0.18;100.00
59650;BME280;46162;57.568;25.814;2023-04-23T03:02:41;100647.75;;;-0.38;100.00
59650;BME280;46162;57.568;25.814;2023-04-23T03:05:11;100644.34;;;-0.24;100.00
59650;BME280;46162;57.568;25.814;2023-04-23T03:07:40;100647.78;;;-0.22;100.00
59650;BME280;46162;57.568;25.814;2023-04-23T03:10:09;100651.56;;;0.06;100.00
59650;BME280;46162;57.568;25.814;2023-04-23T03:12:38;100645.13;;;0.10;100.00
59650;BME280;46162;57.568;25.814;2023-04-23T03:15:08;100652.25;;;0.09;100.00
59650;BME280;46162;57.568;25.814;2023-04-23T03:17:38;100651.47;;;0.07;100.00
59650;BME280;46162;57.568;25.814;2023-04-23T03:20:09;100656.94;;;0.04;100.00
59650;BME280;46162;57.568;25.814;2023-04-23T03:22:39;100655.31;;;0.02;100.00
59650;BME280;46162;57.568;25.814;2023-04-23T03:25:08;100652.50;;;0.05;100.00
59650;BME280;46162;57.568;25.814;2023-04-23T03:27:38;100654.28;;;0.04;100.00
59650;BME280;46162;57.568;25.814;2023-04-23T03:30:08;100654.22;;;0.21;100.00
59650;BME280;46162;57.568;25.814;2023-04-23T03:32:37;100657.19;;;0.31;100.00
59650;BME280;46162;57.568;25.814;2023-04-23T03:35:06;100656.59;;;0.26;100.00
59650;BME280;46162;57.568;25.814;2023-04-23T03:37:40;100655.06;;;0.38;100.00
59650;BME280;46162;57.568;25.814;2023-04-23T03:40:09;100646.38;;;0.50;100.00
59650;BME280;46162;57.568;25.814;2023-04-23T03:42:40;100649.44;;;0.58;100.00
59650;BME280;46162;57.568;25.814;2023-04-23T03:45:13;100652.63;;;0.65;100.00
59650;BME280;46162;57.568;25.814;2023-04-23T03:47:43;100659.53;;;0.68;100.00
59650;BME280;46162;57.568;25.814;2023-04-23T03:50:15;100656.44;;;0.75;100.00
59650;BME280;46162;57.568;25.814;2023-04-23T03:52:54;100650.09;;;0.78;100.00
59650;BME280;46162;57.568;25.814;2023-04-23T03:55:43;100655.72;;;0.88;100.00
59650;BME280;46162;57.568;25.814;2023-04-23T03:58:12;100657.53;;;1.01;100.00
59650;BME280;46162;57.568;25.814;2023-04-23T04:00:44;100648.25;;;1.08;100.00
59650;BME280;46162;57.568;25.814;2023-04-23T04:03:13;100657.50;;;1.17;100.00
59650;BME280;46162;57.568;25.814;2023-04-23T04:05:42;100652.19;;;1.17;100.00
59650;BME280;46162;57.568;25.814;2023-04-23T04:08:12;100654.66;;;1.35;100.00
59650;BME280;46162;57.568;25.814;2023-04-23T04:10:41;100647.56;;;1.49;100.00
59650;BME280;46162;57.568;25.814;2023-04-23T04:13:09;100645.38;;;1.56;100.00
59650;BME280;46162;57.568;25.814;2023-04-23T04:15:38;100651.53;;;1.71;100.00
59650;BME280;46162;57.568;25.814;2023-04-23T04:18:07;100652.09;;;1.90;100.00
59650;BME280;46162;57.568;25.814;2023-04-23T04:20:36;100642.56;;;2.01;100.00
59650;BME280;46162;57.568;25.814;2023-04-23T04:23:04;100640.63;;;2.17;100.00
59650;BME280;46162;57.568;25.814;2023-04-23T04:25:34;100646.66;;;2.33;100.00
59650;BME280;46162;57.568;25.814;2023-04-23T04:28:06;100641.09;;;2.51;100.00
59650;BME280;46162;57.568;25.814;2023-04-23T04:30:35;100639.22;;;2.66;100.00
59650;BME280;46162;57.568;25.814;2023-04-23T04:33:04;100644.47;;;2.80;100.00
59650;BME280;46162;57.568;25.814;2023-04-23T04:35:32;100642.91;;;2.90;100.00
59650;BME280;46162;57.568;25.814;2023-04-23T04:38:01;100648.34;;;3.01;100.00
59650;BME280;46162;57.568;25.814;2023-04-23T04:40:30;100648.47;;;3.13;100.00
59650;BME280;46162;57.568;25.814;2023-04-23T04:43:01;100652.13;;;3.25;100.00
59650;BME280;46162;57.568;25.814;2023-04-23T04:45:31;100637.47;;;3.43;100.00
59650;BME280;46162;57.568;25.814;2023-04-23T04:47:59;100633.00;;;3.56;100.00
59650;BME280;46162;57.568;25.814;2023-04-23T04:50:28;100636.50;;;3.70;100.00
59650;BME280;46162;57.568;25.814;2023-04-23T04:52:57;100640.75;;;3.85;100.00
59650;BME280;46162;57.568;25.814;2023-04-23T04:55:25;100633.34;;;4.01;100.00
59650;BME280;46162;57.568;25.814;2023-04-23T04:57:54;100635.88;;;4.16;100.00
59650;BME280;46162;57.568;25.814;2023-04-23T05:00:26;100632.69;;;4.35;100.00
59650;BME280;46162;57.568;25.814;2023-04-23T05:02:57;100637.81;;;4.62;100.00
59650;BME280;46162;57.568;25.814;2023-04-23T05:05:26;100633.53;;;4.83;100.00
59650;BME280;46162;57.568;25.814;2023-04-23T05:07:55;100638.94;;;5.06;100.00
59650;BME280;46162;57.568;25.814;2023-04-23T05:10:28;100642.84;;;5.13;100.00
59650;BME280;46162;57.568;25.814;2023-04-23T05:12:58;100641.31;;;5.33;100.00
59650;BME280;46162;57.568;25.814;2023-04-23T05:15:28;100639.00;;;5.51;100.00
59650;BME280;46162;57.568;25.814;2023-04-23T05:17:57;100641.69;;;5.51;100.00
59650;BME280;46162;57.568;25.814;2023-04-23T05:20:26;100638.19;;;5.73;100.00
59650;BME280;46162;57.568;25.814;2023-04-23T05:22:54;100634.75;;;5.93;100.00
59650;BME280;46162;57.568;25.814;2023-04-23T05:25:25;100635.16;;;6.00;100.00
59650;BME280;46162;57.568;25.814;2023-04-23T05:27:54;100628.22;;;6.09;100.00
59650;BME280;46162;57.568;25.814;2023-04-23T05:30:23;100624.63;;;6.31;100.00
59650;BME280;46162;57.568;25.814;2023-04-23T05:32:53;100626.78;;;6.37;100.00
59650;BME280;46162;57.568;25.814;2023-04-23T05:35:22;100628.19;;;6.52;100.00
59650;BME280;46162;57.568;25.814;2023-04-23T05:37:50;100626.22;;;6.65;100.00
59650;BME280;46162;57.568;25.814;2023-04-23T05:40:19;100630.56;;;6.78;100.00
59650;BME280;46162;57.568;25.814;2023-04-23T05:42:48;100620.44;;;7.02;100.00
59650;BME280;46162;57.568;25.814;2023-04-23T05:45:17;100624.34;;;7.19;100.00
59650;BME280;46162;57.568;25.814;2023-04-23T05:47:45;100623.03;;;7.35;100.00
59650;BME280;46162;57.568;25.814;2023-04-23T05:50:16;100623.94;;;7.45;100.00
59650;BME280;46162;57.568;25.814;2023-04-23T05:52:44;100618.38;;;7.67;100.00
59650;BME280;46162;57.568;25.814;2023-04-23T05:55:13;100621.25;;;7.75;100.00
59650;BME280;46162;57.568;25.814;2023-04-23T05:57:42;100626.66;;;7.85;100.00
59650;BME280;46162;57.568;25.814;2023-04-23T06:00:11;100613.88;;;8.18;100.00
59650;BME280;46162;57.568;25.814;2023-04-23T06:02:40;100615.88;;;8.35;100.00
59650;BME280;46162;57.568;25.814;2023-04-23T06:05:09;100606.72;;;8.48;100.00
59650;BME280;46162;57.568;25.814;2023-04-23T06:07:41;100611.28;;;8.67;100.00
59650;BME280;46162;57.568;25.814;2023-04-23T06:10:11;100602.06;;;8.69;100.00
59650;BME280;46162;57.568;25.814;2023-04-23T06:12:39;100603.03;;;8.88;100.00
59650;BME280;46162;57.568;25.814;2023-04-23T06:15:09;100603.44;;;9.12;100.00
59650;BME280;46162;57.568;25.814;2023-04-23T06:17:38;100600.88;;;9.20;100.00
59650;BME280;46162;57.568;25.814;2023-04-23T06:20:08;100611.75;;;9.38;100.00
59650;BME280;46162;57.568;25.814;2023-04-23T06:22:38;100615.53;;;9.55;100.00
59650;BME280;46162;57.568;25.814;2023-04-23T06:25:08;100603.59;;;9.67;100.00
59650;BME280;46162;57.568;25.814;2023-04-23T06:27:37;100612.97;;;9.91;100.00
59650;BME280;46162;57.568;25.814;2023-04-23T06:30:14;100604.69;;;10.02;100.00
59650;BME280;46162;57.568;25.814;2023-04-23T06:32:43;100598.63;;;10.18;100.00
59650;BME280;46162;57.568;25.814;2023-04-23T06:35:11;100596.63;;;10.20;100.00
59650;BME280;46162;57.568;25.814;2023-04-23T06:37:40;100599.81;;;10.33;100.00
59650;BME280;46162;57.568;25.814;2023-04-23T06:40:11;100592.75;;;10.50;100.00
59650;BME280;46162;57.568;25.814;2023-04-23T06:42:39;100596.06;;;10.62;100.00
59650;BME280;46162;57.568;25.814;2023-04-23T06:45:27;100590.50;;;10.82;100.00
59650;BME280;46162;57.568;25.814;2023-04-23T06:47:57;100589.78;;;10.97;100.00
59650;BME280;46162;57.568;25.814;2023-04-23T06:50:26;100586.91;;;11.17;100.00
59650;BME280;46162;57.568;25.814;2023-04-23T06:52:55;100585.31;;;11.32;100.00
59650;BME280;46162;57.568;25.814;2023-04-23T06:55:25;100584.91;;;11.45;100.00
59650;BME280;46162;57.568;25.814;2023-04-23T06:57:55;100587.09;;;11.50;100.00
59650;BME280;46162;57.568;25.814;2023-04-23T07:00:24;100587.22;;;11.74;100.00
59650;BME280;46162;57.568;25.814;2023-04-23T07:02:53;100579.28;;;11.73;100.00
59650;BME280;46162;57.568;25.814;2023-04-23T07:05:22;100583.19;;;12.04;100.00
59650;BME280;46162;57.568;25.814;2023-04-23T07:07:50;100574.72;;;12.16;100.00
59650;BME280;46162;57.568;25.814;2023-04-23T07:10:19;100579.34;;;12.32;100.00
59650;BME280;46162;57.568;25.814;2023-04-23T07:12:49;100582.75;;;12.50;100.00
59650;BME280;46162;57.568;25.814;2023-04-23T07:15:18;100576.00;;;12.62;100.00
59650;BME280;46162;57.568;25.814;2023-04-23T07:17:47;100583.28;;;12.54;100.00
59650;BME280;46162;57.568;25.814;2023-04-23T07:20:15;100576.00;;;12.54;100.00
59650;BME280;46162;57.568;25.814;2023-04-23T07:22:44;100576.16;;;12.53;100.00
59650;BME280;46162;57.568;25.814;2023-04-23T07:25:13;100574.34;;;12.86;100.00
59650;BME280;46162;57.568;25.814;2023-04-23T07:27:44;100577.72;;;12.96;100.00
59650;BME280;46162;57.568;25.814;2023-04-23T07:30:15;100577.53;;;12.89;100.00
59650;BME280;46162;57.568;25.814;2023-04-23T07:32:44;100581.09;;;13.06;100.00
59650;BME280;46162;57.568;25.814;2023-04-23T07:35:15;100576.84;;;12.96;100.00
59650;BME280;46162;57.568;25.814;2023-04-23T07:37:44;100570.94;;;13.08;100.00
59650;BME280;46162;57.568;25.814;2023-04-23T07:40:13;100568.56;;;13.13;100.00
59650;BME280;46162;57.568;25.814;2023-04-23T07:42:41;100559.38;;;13.15;100.00
59650;BME280;46162;57.568;25.814;2023-04-23T07:45:10;100559.91;;;13.18;100.00
59650;BME280;46162;57.568;25.814;2023-04-23T07:47:40;100558.34;;;13.48;100.00
59650;BME280;46162;57.568;25.814;2023-04-23T07:50:10;100554.56;;;13.66;100.00
59650;BME280;46162;57.568;25.814;2023-04-23T07:52:38;100552.63;;;13.74;100.00
59650;BME280;46162;57.568;25.814;2023-04-23T07:55:08;100550.47;;;13.70;100.00
59650;BME280;46162;57.568;25.814;2023-04-23T07:57:36;100544.22;;;13.61;100.00
59650;BME280;46162;57.568;25.814;2023-04-23T08:00:06;100545.78;;;13.55;100.00
59650;BME280;46162;57.568;25.814;2023-04-23T08:02:41;100542.00;;;13.65;100.00
59650;BME280;46162;57.568;25.814;2023-04-23T08:05:10;100540.31;;;13.64;100.00
59650;BME280;46162;57.568;25.814;2023-04-23T08:07:39;100531.59;;;13.76;100.00
59650;BME280;46162;57.568;25.814;2023-04-23T08:10:08;100529.94;;;13.75;100.00
59650;BME280;46162;57.568;25.814;2023-04-23T08:12:36;100532.44;;;13.85;100.00
59650;BME280;46162;57.568;25.814;2023-04-23T08:15:06;100528.16;;;13.91;100.00
59650;BME280;46162;57.568;25.814;2023-04-23T08:17:40;100531.31;;;14.03;100.00
59650;BME280;46162;57.568;25.814;2023-04-23T08:20:09;100527.22;;;14.07;100.00
59650;BME280;46162;57.568;25.814;2023-04-23T08:22:38;100524.50;;;14.07;100.00
59650;BME280;46162;57.568;25.814;2023-04-23T08:25:08;100516.00;;;14.10;100.00
59650;BME280;46162;57.568;25.814;2023-04-23T08:27:37;100521.06;;;14.13;100.00
59650;BME280;46162;57.568;25.814;2023-04-23T08:30:06;100513.69;;;14.30;100.00
59650;BME280;46162;57.568;25.814;2023-04-23T08:32:35;100517.84;;;14.40;100.00
59650;BME280;46162;57.568;25.814;2023-04-23T08:35:06;100513.44;;;14.62;100.00
59650;BME280;46162;57.568;25.814;2023-04-23T08:37:35;100506.09;;;14.71;100.00
59650;BME280;46162;57.568;25.814;2023-04-23T08:40:06;100493.09;;;14.81;100.00
59650;BME280;46162;57.568;25.814;2023-04-23T08:42:37;100504.16;;;14.95;100.00
59650;BME280;46162;57.568;25.814;2023-04-23T08:45:08;100497.41;;;15.05;100.00
59650;BME280;46162;57.568;25.814;2023-04-23T08:47:38;100494.22;;;15.02;100.00
59650;BME280;46162;57.568;25.814;2023-04-23T08:50:12;100490.13;;;15.06;100.00
59650;BME280;46162;57.568;25.814;2023-04-23T08:52:47;100485.81;;;15.26;100.00
59650;BME280;46162;57.568;25.814;2023-04-23T08:55:17;100486.53;;;15.35;100.00
59650;BME280;46162;57.568;25.814;2023-04-23T08:57:46;100480.00;;;15.30;100.00
59650;BME280;46162;57.568;25.814;2023-04-23T09:00:17;100484.75;;;15.42;100.00
59650;BME280;46162;57.568;25.814;2023-04-23T09:02:47;100481.47;;;15.47;100.00
59650;BME280;46162;57.568;25.814;2023-04-23T09:05:18;100486.34;;;15.66;100.00
59650;BME280;46162;57.568;25.814;2023-04-23T09:07:47;100486.13;;;15.98;100.00
59650;BME280;46162;57.568;25.814;2023-04-23T09:10:15;100477.25;;;16.10;100.00
59650;BME280;46162;57.568;25.814;2023-04-23T09:12:45;100482.59;;;16.40;100.00
59650;BME280;46162;57.568;25.814;2023-04-23T09:15:14;100479.09;;;16.25;100.00
59650;BME280;46162;57.568;25.814;2023-04-23T09:17:45;100476.63;;;16.30;100.00
59650;BME280;46162;57.568;25.814;2023-04-23T09:20:14;100481.75;;;16.40;100.00
59650;BME280;46162;57.568;25.814;2023-04-23T09:22:47;100475.25;;;16.62;100.00
59650;BME280;46162;57.568;25.814;2023-04-23T09:25:17;100473.41;;;16.69;97.22
59650;BME280;46162;57.568;25.814;2023-04-23T09:27:47;100461.66;;;16.69;96.76
59650;BME280;46162;57.568;25.814;2023-04-23T09:30:17;100474.69;;;16.73;100.00
59650;BME280;46162;57.568;25.814;2023-04-23T09:32:46;100473.50;;;17.11;100.00
59650;BME280;46162;57.568;25.814;2023-04-23T09:35:16;100463.97;;;17.28;99.80
59650;BME280;46162;57.568;25.814;2023-04-23T09:37:49;100461.41;;;17.20;100.00
59650;BME280;46162;57.568;25.814;2023-04-23T09:40:21;100470.66;;;17.19;96.77
59650;BME280;46162;57.568;25.814;2023-04-23T09:42:50;100463.66;;;17.10;100.00
59650;BME280;46162;57.568;25.814;2023-04-23T09:45:21;100452.50;;;17.05;100.00
59650;BME280;46162;57.568;25.814;2023-04-23T09:47:52;100450.44;;;17.13;100.00
59650;BME280;46162;57.568;25.814;2023-04-23T09:50:31;100449.78;;;17.05;100.00
59650;BME280;46162;57.568;25.814;2023-04-23T09:53:01;100446.75;;;17.21;100.00
59650;BME280;46162;57.568;25.814;2023-04-23T09:55:31;100446.25;;;17.52;89.99
59650;BME280;46162;57.568;25.814;2023-04-23T09:58:02;100462.44;;;17.60;93.89
59650;BME280;46162;57.568;25.814;2023-04-23T10:00:32;100450.66;;;17.12;95.99
59650;BME280;46162;57.568;25.814;2023-04-23T10:03:01;100451.13;;;16.87;94.43
59650;BME280;46162;57.568;25.814;2023-04-23T10:05:31;100457.06;;;16.97;98.29
59650;BME280;46162;57.568;25.814;2023-04-23T10:08:21;100440.78;;;17.11;95.37
59650;BME280;46162;57.568;25.814;2023-04-23T10:10:50;100438.50;;;17.14;91.37
59650;BME280;46162;57.568;25.814;2023-04-23T10:13:33;100456.03;;;17.33;95.23
59650;BME280;46162;57.568;25.814;2023-04-23T10:16:03;100452.69;;;17.38;96.64
59650;BME280;46162;57.568;25.814;2023-04-23T10:18:50;100448.53;;;17.42;86.14
59650;BME280;46162;57.568;25.814;2023-04-23T10:21:23;100438.91;;;17.46;96.55
59650;BME280;46162;57.568;25.814;2023-04-23T10:24:04;100425.56;;;17.78;89.47
59650;BME280;46162;57.568;25.814;2023-04-23T10:26:33;100433.63;;;17.99;85.84
59650;BME280;46162;57.568;25.814;2023-04-23T10:29:03;100428.97;;;17.87;89.47
59650;BME280;46162;57.568;25.814;2023-04-23T10:31:32;100435.44;;;17.79;83.25
59650;BME280;46162;57.568;25.814;2023-04-23T10:34:03;100427.44;;;17.77;87.37
59650;BME280;46162;57.568;25.814;2023-04-23T10:36:32;100426.41;;;17.78;88.30
59650;BME280;46162;57.568;25.814;2023-04-23T10:39:01;100410.56;;;18.15;92.20
59650;BME280;46162;57.568;25.814;2023-04-23T10:41:37;100402.16;;;18.23;84.03
59650;BME280;46162;57.568;25.814;2023-04-23T10:44:10;100421.06;;;18.38;82.96
59650;BME280;46162;57.568;25.814;2023-04-23T10:46:50;100422.56;;;18.27;74.64
59650;BME280;46162;57.568;25.814;2023-04-23T10:49:22;100404.88;;;18.23;83.50
59650;BME280;46162;57.568;25.814;2023-04-23T10:51:57;100416.88;;;18.42;88.14
59650;BME280;46162;57.568;25.814;2023-04-23T10:54:47;100404.25;;;18.28;91.28
59650;BME280;46162;57.568;25.814;2023-04-23T10:57:18;100407.59;;;18.37;95.15
59650;BME280;46162;57.568;25.814;2023-04-23T10:59:55;100401.72;;;18.66;81.58
59650;BME280;46162;57.568;25.814;2023-04-23T11:02:41;100395.84;;;18.76;73.56
59650;BME280;46162;57.568;25.814;2023-04-23T11:05:11;100398.13;;;18.73;83.26
59650;BME280;46162;57.568;25.814;2023-04-23T11:07:39;100395.84;;;18.69;90.80
59650;BME280;46162;57.568;25.814;2023-04-23T11:10:11;100388.03;;;18.66;84.36
59650;BME280;46162;57.568;25.814;2023-04-23T11:12:43;100390.81;;;18.40;76.44
59650;BME280;46162;57.568;25.814;2023-04-23T11:15:13;100388.69;;;18.42;81.99
59650;BME280;46162;57.568;25.814;2023-04-23T11:17:59;100380.28;;;18.37;86.05
59650;BME280;46162;57.568;25.814;2023-04-23T11:20:28;100392.47;;;18.34;80.19
59650;BME280;46162;57.568;25.814;2023-04-23T11:22:57;100386.19;;;18.40;77.29
59650;BME280;46162;57.568;25.814;2023-04-23T11:25:26;100370.59;;;18.14;80.34
59650;BME280;46162;57.568;25.814;2023-04-23T11:27:57;100374.81;;;18.37;74.93
59650;BME280;46162;57.568;25.814;2023-04-23T11:30:27;100378.59;;;18.56;84.55
59650;BME280;46162;57.568;25.814;2023-04-23T11:32:57;100371.66;;;18.53;84.75
59650;BME280;46162;57.568;25.814;2023-04-23T11:35:26;100376.28;;;18.53;71.73
59650;BME280;46162;57.568;25.814;2023-04-23T11:37:56;100372.28;;;18.48;70.55
59650;BME280;46162;57.568;25.814;2023-04-23T11:40:24;100374.78;;;18.57;76.38
59650;BME280;46162;57.568;25.814;2023-04-23T11:42:58;100376.47;;;18.44;69.74
59650;BME280;46162;57.568;25.814;2023-04-23T11:45:30;100365.78;;;18.36;69.87
59650;BME280;46162;57.568;25.814;2023-04-23T11:47:59;100371.03;;;18.38;75.01
59650;BME280;46162;57.568;25.814;2023-04-23T11:50:29;100367.47;;;18.31;70.44
59650;BME280;46162;57.568;25.814;2023-04-23T11:53:04;100367.66;;;18.36;72.04
59650;BME280;46162;57.568;25.814;2023-04-23T11:55:33;100357.16;;;18.39;71.15
59650;BME280;46162;57.568;25.814;2023-04-23T11:58:03;100359.47;;;18.42;78.64
59650;BME280;46162;57.568;25.814;2023-04-23T12:00:32;100358.63;;;18.09;75.88
59650;BME280;46162;57.568;25.814;2023-04-23T12:03:02;100361.34;;;18.22;80.29
59650;BME280;46162;57.568;25.814;2023-04-23T12:05:34;100355.91;;;18.29;77.85
59650;BME280;46162;57.568;25.814;2023-04-23T12:08:07;100352.53;;;17.93;75.03
59650;BME280;46162;57.568;25.814;2023-04-23T12:10:44;100349.19;;;18.11;80.89
59650;BME280;46162;57.568;25.814;2023-04-23T12:13:16;100354.84;;;18.30;88.40
59650;BME280;46162;57.568;25.814;2023-04-23T12:15:46;100352.34;;;18.35;81.21
59650;BME280;46162;57.568;25.814;2023-04-23T12:18:15;100346.63;;;18.56;73.37
59650;BME280;46162;57.568;25.814;2023-04-23T12:20:43;100349.19;;;18.18;81.23
59650;BME280;46162;57.568;25.814;2023-04-23T12:23:12;100348.75;;;18.08;91.99
59650;BME280;46162;57.568;25.814;2023-04-23T12:25:40;100349.94;;;17.78;81.72
59650;BME280;46162;57.568;25.814;2023-04-23T12:28:09;100341.97;;;17.77;83.35
59650;BME280;46162;57.568;25.814;2023-04-23T12:30:43;100349.78;;;17.87;87.27
59650;BME280;46162;57.568;25.814;2023-04-23T12:33:12;100334.44;;;18.12;82.86
59650;BME280;46162;57.568;25.814;2023-04-23T12:35:42;100335.94;;;18.21;80.16
59650;BME280;46162;57.568;25.814;2023-04-23T12:38:25;100329.41;;;18.29;81.25
59650;BME280;46162;57.568;25.814;2023-04-23T12:40:56;100325.84;;;18.35;76.22
59650;BME280;46162;57.568;25.814;2023-04-23T12:43:25;100325.44;;;18.18;65.32
59650;BME280;46162;57.568;25.814;2023-04-23T12:45:55;100318.91;;;18.19;68.49
59650;BME280;46162;57.568;25.814;2023-04-23T12:48:24;100316.59;;;18.10;67.90
59650;BME280;46162;57.568;25.814;2023-04-23T12:50:52;100316.81;;;18.21;74.70
59650;BME280;46162;57.568;25.814;2023-04-23T12:53:21;100310.91;;;18.24;69.29